sensor_id;sensor_type;location;lat;lon;timestamp;temperature;humidity
21267;DHT22;10791;53.108;18.326;2023-07-02T00:03:33;20.20;99.90
21267;DHT22;10791;53.108;18.326;2023-07-02T00:08:36;20.10;99.90
21267;DHT22;10791;53.108;18.326;2023-07-02T00:13:39;20.10;99.90
21267;DHT22;10791;53.108;18.326;2023-07-02T00:18:42;20.10;99.90
21267;DHT22;10791;53.108;18.326;2023-07-02T00:23:46;20.10;99.90
21267;DHT22;10791;53.108;18.326;2023-07-02T00:28:50;20.10;99.90
21267;DHT22;10791;53.108;18.326;2023-07-02T00:33:53;20.10;99.90
21267;DHT22;10791;53.108;18.326;2023-07-02T00:38:57;20.10;99.90
21267;DHT22;10791;53.108;18.326;2023-07-02T00:44:01;20.00;99.90
21267;DHT22;10791;53.108;18.326;2023-07-02T00:49:05;20.00;99.90
21267;DHT22;10791;53.108;18.326;2023-07-02T00:54:08;20.00;99.90
21267;DHT22;10791;53.108;18.326;2023-07-02T00:59:12;19.90;99.90
21267;DHT22;10791;53.108;18.326;2023-07-02T01:04:19;19.90;99.90
21267;DHT22;10791;53.108;18.326;2023-07-02T01:09:24;19.80;99.90
21267;DHT22;10791;53.108;18.326;2023-07-02T01:14:38;19.80;99.90
21267;DHT22;10791;53.108;18.326;2023-07-02T01:24:48;19.80;99.90
21267;DHT22;10791;53.108;18.326;2023-07-02T01:29:52;19.70;99.90
21267;DHT22;10791;53.108;18.326;2023-07-02T01:34:56;19.60;99.90
21267;DHT22;10791;53.108;18.326;2023-07-02T01:40:02;19.60;99.90
21267;DHT22;10791;53.108;18.326;2023-07-02T01:45:07;19.60;99.90
21267;DHT22;10791;53.108;18.326;2023-07-02T01:50:10;19.60;99.90
21267;DHT22;10791;53.108;18.326;2023-07-02T01:55:14;19.50;99.90
21267;DHT22;10791;53.108;18.326;2023-07-02T02:00:17;19.50;99.90
21267;DHT22;10791;53.108;18.326;2023-07-02T02:05:21;19.50;99.90
21267;DHT22;10791;53.108;18.326;2023-07-02T02:10:24;19.50;99.90
21267;DHT22;10791;53.108;18.326;2023-07-02T02:15:27;19.40;99.90
21267;DHT22;10791;53.108;18.326;2023-07-02T02:20:30;19.40;99.90
21267;DHT22;10791;53.108;18.326;2023-07-02T02:25:33;19.40;99.90
21267;DHT22;10791;53.108;18.326;2023-07-02T02:30:37;19.30;99.90
21267;DHT22;10791;53.108;18.326;2023-07-02T02:35:40;19.40;99.90
21267;DHT22;10791;53.108;18.326;2023-07-02T02:40:44;19.20;99.90
21267;DHT22;10791;53.108;18.326;2023-07-02T02:45:47;19.20;99.90
21267;DHT22;10791;53.108;18.326;2023-07-02T02:50:51;19.10;99.90
21267;DHT22;10791;53.108;18.326;2023-07-02T02:55:54;19.10;99.90
21267;DHT22;10791;53.108;18.326;2023-07-02T03:00:58;19.10;99.90
21267;DHT22;10791;53.108;18.326;2023-07-02T03:06:01;19.10;99.90
21267;DHT22;10791;53.108;18.326;2023-07-02T03:11:05;19.00;99.90
21267;DHT22;10791;53.108;18.326;2023-07-02T03:16:09;18.90;99.90
21267;DHT22;10791;53.108;18.326;2023-07-02T03:21:12;18.80;99.90
21267;DHT22;10791;53.108;18.326;2023-07-02T03:26:15;18.70;99.90
21267;DHT22;10791;53.108;18.326;2023-07-02T03:31:19;18.70;99.90
21267;DHT22;10791;53.108;18.326;2023-07-02T03:36:22;18.70;99.90
21267;DHT22;10791;53.108;18.326;2023-07-02T03:41:26;18.60;99.90
21267;DHT22;10791;53.108;18.326;2023-07-02T03:46:29;18.60;99.90
21267;DHT22;10791;53.108;18.326;2023-07-02T03:51:34;18.60;99.90
21267;DHT22;10791;53.108;18.326;2023-07-02T03:56:37;18.70;99.90
21267;DHT22;10791;53.108;18.326;2023-07-02T04:01:40;18.90;99.90
21267;DHT22;10791;53.108;18.326;2023-07-02T04:06:44;19.00;99.90
21267;DHT22;10791;53.108;18.326;2023-07-02T04:11:47;19.00;99.90
21267;DHT22;10791;53.108;18.326;2023-07-02T04:16:51;19.00;99.90
21267;DHT22;10791;53.108;18.326;2023-07-02T04:21:54;19.00;99.90
21267;DHT22;10791;53.108;18.326;2023-07-02T04:26:58;19.00;99.90
21267;DHT22;10791;53.108;18.326;2023-07-02T04:32:23;19.10;99.90
21267;DHT22;10791;53.108;18.326;2023-07-02T04:37:26;19.00;99.90
21267;DHT22;10791;53.108;18.326;2023-07-02T04:42:31;19.10;99.90
21267;DHT22;10791;53.108;18.326;2023-07-02T04:47:38;19.30;99.90
21267;DHT22;10791;53.108;18.326;2023-07-02T04:52:41;19.40;99.90
21267;DHT22;10791;53.108;18.326;2023-07-02T04:57:44;19.40;99.90
21267;DHT22;10791;53.108;18.326;2023-07-02T05:02:48;19.50;99.90
21267;DHT22;10791;53.108;18.326;2023-07-02T05:07:53;19.60;99.90
21267;DHT22;10791;53.108;18.326;2023-07-02T05:12:56;19.60;99.90
21267;DHT22;10791;53.108;18.326;2023-07-02T05:18:00;19.60;99.90
21267;DHT22;10791;53.108;18.326;2023-07-02T05:23:03;19.60;99.90
21267;DHT22;10791;53.108;18.326;2023-07-02T05:28:06;19.60;99.90
21267;DHT22;10791;53.108;18.326;2023-07-02T05:33:10;19.30;99.90
21267;DHT22;10791;53.108;18.326;2023-07-02T05:38:13;19.10;99.90
21267;DHT22;10791;53.108;18.326;2023-07-02T05:43:17;18.90;99.90
21267;DHT22;10791;53.108;18.326;2023-07-02T05:48:20;18.90;99.90
21267;DHT22;10791;53.108;18.326;2023-07-02T05:53:24;19.00;99.90
21267;DHT22;10791;53.108;18.326;2023-07-02T05:58:27;19.10;99.90
21267;DHT22;10791;53.108;18.326;2023-07-02T06:03:52;19.10;99.90
21267;DHT22;10791;53.108;18.326;2023-07-02T06:08:56;19.20;99.90
21267;DHT22;10791;53.108;18.326;2023-07-02T06:13:59;19.30;99.90
21267;DHT22;10791;53.108;18.326;2023-07-02T06:19:03;19.40;99.90
21267;DHT22;10791;53.108;18.326;2023-07-02T06:24:06;19.30;99.90
21267;DHT22;10791;53.108;18.326;2023-07-02T06:29:10;19.30;99.90
21267;DHT22;10791;53.108;18.326;2023-07-02T06:34:13;19.30;99.90
21267;DHT22;10791;53.108;18.326;2023-07-02T06:39:18;19.40;99.90
21267;DHT22;10791;53.108;18.326;2023-07-02T06:44:21;19.50;99.90
21267;DHT22;10791;53.108;18.326;2023-07-02T06:49:24;19.60;99.90
21267;DHT22;10791;53.108;18.326;2023-07-02T06:54:28;19.70;99.90
21267;DHT22;10791;53.108;18.326;2023-07-02T06:59:31;19.70;99.90
21267;DHT22;10791;53.108;18.326;2023-07-02T07:04:34;19.90;99.90
21267;DHT22;10791;53.108;18.326;2023-07-02T07:09:38;19.90;99.90
21267;DHT22;10791;53.108;18.326;2023-07-02T07:14:41;19.90;99.90
21267;DHT22;10791;53.108;18.326;2023-07-02T07:19:44;20.00;99.90
21267;DHT22;10791;53.108;18.326;2023-07-02T07:24:48;20.10;99.90
21267;DHT22;10791;53.108;18.326;2023-07-02T07:29:51;20.10;99.90
21267;DHT22;10791;53.108;18.326;2023-07-02T07:34:54;20.00;99.90
21267;DHT22;10791;53.108;18.326;2023-07-02T07:39:58;20.00;99.90
21267;DHT22;10791;53.108;18.326;2023-07-02T07:45:03;20.00;99.90
21267;DHT22;10791;53.108;18.326;2023-07-02T07:50:07;20.20;99.90
21267;DHT22;10791;53.108;18.326;2023-07-02T07:55:14;20.60;99.90
21267;DHT22;10791;53.108;18.326;2023-07-02T08:00:17;20.90;99.90
21267;DHT22;10791;53.108;18.326;2023-07-02T08:05:21;20.80;99.90
21267;DHT22;10791;53.108;18.326;2023-07-02T08:10:25;20.90;99.90
21267;DHT22;10791;53.108;18.326;2023-07-02T08:15:30;20.90;99.90
21267;DHT22;10791;53.108;18.326;2023-07-02T08:20:34;21.00;99.90
21267;DHT22;10791;53.108;18.326;2023-07-02T08:25:37;21.10;97.80
21267;DHT22;10791;53.108;18.326;2023-07-02T08:30:41;21.10;93.80
21267;DHT22;10791;53.108;18.326;2023-07-02T08:35:44;21.10;96.10
21267;DHT22;10791;53.108;18.326;2023-07-02T08:40:49;21.30;94.40
21267;DHT22;10791;53.108;18.326;2023-07-02T08:45:54;21.10;93.40
21267;DHT22;10791;53.108;18.326;2023-07-02T08:50:57;21.20;93.10
21267;DHT22;10791;53.108;18.326;2023-07-02T08:56:03;21.40;92.40
21267;DHT22;10791;53.108;18.326;2023-07-02T09:01:12;21.50;93.90
21267;DHT22;10791;53.108;18.326;2023-07-02T09:06:17;22.00;91.40
21267;DHT22;10791;53.108;18.326;2023-07-02T09:11:21;22.00;90.90
21267;DHT22;10791;53.108;18.326;2023-07-02T09:16:32;22.40;88.70
21267;DHT22;10791;53.108;18.326;2023-07-02T09:21:45;22.40;88.40
21267;DHT22;10791;53.108;18.326;2023-07-02T09:26:53;22.50;87.80
21267;DHT22;10791;53.108;18.326;2023-07-02T09:32:02;22.70;84.60
21267;DHT22;10791;53.108;18.326;2023-07-02T09:37:12;22.80;83.30
21267;DHT22;10791;53.108;18.326;2023-07-02T09:42:17;22.90;79.90
21267;DHT22;10791;53.108;18.326;2023-07-02T09:47:23;23.00;79.90
21267;DHT22;10791;53.108;18.326;2023-07-02T09:52:28;23.20;80.30
21267;DHT22;10791;53.108;18.326;2023-07-02T09:57:32;23.50;79.50
21267;DHT22;10791;53.108;18.326;2023-07-02T10:02:38;23.70;76.30
21267;DHT22;10791;53.108;18.326;2023-07-02T10:07:41;23.50;78.00
21267;DHT22;10791;53.108;18.326;2023-07-02T10:12:47;23.60;74.70
21267;DHT22;10791;53.108;18.326;2023-07-02T10:18:02;24.00;71.80
21267;DHT22;10791;53.108;18.326;2023-07-02T10:23:09;24.20;69.30
21267;DHT22;10791;53.108;18.326;2023-07-02T10:28:19;24.10;69.90
21267;DHT22;10791;53.108;18.326;2023-07-02T10:33:25;24.10;70.10
21267;DHT22;10791;53.108;18.326;2023-07-02T10:38:29;23.70;69.20
21267;DHT22;10791;53.108;18.326;2023-07-02T10:43:32;23.60;74.10
21267;DHT22;10791;53.108;18.326;2023-07-02T10:48:36;24.00;75.30
21267;DHT22;10791;53.108;18.326;2023-07-02T10:53:39;24.00;73.80
21267;DHT22;10791;53.108;18.326;2023-07-02T10:58:43;23.80;72.50
21267;DHT22;10791;53.108;18.326;2023-07-02T11:03:56;23.70;73.50
21267;DHT22;10791;53.108;18.326;2023-07-02T11:09:00;24.20;70.30
21267;DHT22;10791;53.108;18.326;2023-07-02T11:14:04;24.40;69.10
21267;DHT22;10791;53.108;18.326;2023-07-02T11:19:08;24.20;67.80
21267;DHT22;10791;53.108;18.326;2023-07-02T11:24:12;24.20;68.40
21267;DHT22;10791;53.108;18.326;2023-07-02T11:29:18;24.00;67.20
21267;DHT22;10791;53.108;18.326;2023-07-02T11:34:22;23.80;68.20
21267;DHT22;10791;53.108;18.326;2023-07-02T11:39:28;23.60;68.90
21267;DHT22;10791;53.108;18.326;2023-07-02T11:44:35;23.60;72.40
21267;DHT22;10791;53.108;18.326;2023-07-02T11:49:39;24.20;70.50
21267;DHT22;10791;53.108;18.326;2023-07-02T11:54:42;24.80;65.40
21267;DHT22;10791;53.108;18.326;2023-07-02T11:59:46;24.70;65.20
21267;DHT22;10791;53.108;18.326;2023-07-02T12:04:49;24.80;66.80
21267;DHT22;10791;53.108;18.326;2023-07-02T12:09:53;24.80;65.80
21267;DHT22;10791;53.108;18.326;2023-07-02T12:14:56;24.60;64.90
21267;DHT22;10791;53.108;18.326;2023-07-02T12:20:00;25.00;66.70
21267;DHT22;10791;53.108;18.326;2023-07-02T12:25:05;25.40;64.70
21267;DHT22;10791;53.108;18.326;2023-07-02T12:30:09;25.30;63.40
21267;DHT22;10791;53.108;18.326;2023-07-02T12:35:13;25.40;63.10
21267;DHT22;10791;53.108;18.326;2023-07-02T12:40:17;25.40;61.70
21267;DHT22;10791;53.108;18.326;2023-07-02T12:45:20;24.90;63.10
21267;DHT22;10791;53.108;18.326;2023-07-02T12:50:24;24.50;65.30
21267;DHT22;10791;53.108;18.326;2023-07-02T12:55:27;24.10;65.70
21267;DHT22;10791;53.108;18.326;2023-07-02T13:00:31;23.90;66.10
21267;DHT22;10791;53.108;18.326;2023-07-02T13:05:35;24.20;66.10
21267;DHT22;10791;53.108;18.326;2023-07-02T13:10:39;24.20;66.50
21267;DHT22;10791;53.108;18.326;2023-07-02T13:15:44;23.90;66.90
21267;DHT22;10791;53.108;18.326;2023-07-02T13:20:48;23.80;68.60
21267;DHT22;10791;53.108;18.326;2023-07-02T13:25:51;23.70;68.00
21267;DHT22;10791;53.108;18.326;2023-07-02T13:30:56;23.90;69.70
21267;DHT22;10791;53.108;18.326;2023-07-02T13:36:00;24.20;67.60
21267;DHT22;10791;53.108;18.326;2023-07-02T13:41:04;23.90;68.30
21267;DHT22;10791;53.108;18.326;2023-07-02T13:46:08;23.80;69.80
21267;DHT22;10791;53.108;18.326;2023-07-02T13:51:13;23.60;69.20
21267;DHT22;10791;53.108;18.326;2023-07-02T13:56:17;23.60;69.20
21267;DHT22;10791;53.108;18.326;2023-07-02T14:01:20;23.70;70.60
21267;DHT22;10791;53.108;18.326;2023-07-02T14:06:25;23.90;68.60
21267;DHT22;10791;53.108;18.326;2023-07-02T14:11:29;23.80;66.00
21267;DHT22;10791;53.108;18.326;2023-07-02T14:16:33;23.60;65.90
21267;DHT22;10791;53.108;18.326;2023-07-02T14:21:36;23.20;67.80
21267;DHT22;10791;53.108;18.326;2023-07-02T14:26:40;23.10;68.80
21267;DHT22;10791;53.108;18.326;2023-07-02T14:31:44;23.50;66.90
21267;DHT22;10791;53.108;18.326;2023-07-02T14:36:48;23.80;67.20
21267;DHT22;10791;53.108;18.326;2023-07-02T14:41:52;23.80;67.60
21267;DHT22;10791;53.108;18.326;2023-07-02T14:46:56;23.50;68.70
21267;DHT22;10791;53.108;18.326;2023-07-02T14:52:00;23.60;69.10
21267;DHT22;10791;53.108;18.326;2023-07-02T14:57:04;24.10;68.00
21267;DHT22;10791;53.108;18.326;2023-07-02T15:02:07;24.00;68.60
21267;DHT22;10791;53.108;18.326;2023-07-02T15:07:11;24.20;67.60
21267;DHT22;10791;53.108;18.326;2023-07-02T15:12:14;23.60;69.80
21267;DHT22;10791;53.108;18.326;2023-07-02T15:17:18;23.30;70.20
21267;DHT22;10791;53.108;18.326;2023-07-02T15:22:22;23.20;70.90
21267;DHT22;10791;53.108;18.326;2023-07-02T15:27:26;23.00;70.90
21267;DHT22;10791;53.108;18.326;2023-07-02T15:32:29;23.10;71.30
21267;DHT22;10791;53.108;18.326;2023-07-02T15:37:33;24.70;67.70
21267;DHT22;10791;53.108;18.326;2023-07-02T15:42:36;25.40;66.30
21267;DHT22;10791;53.108;18.326;2023-07-02T15:47:40;25.40;64.90
21267;DHT22;10791;53.108;18.326;2023-07-02T15:52:44;26.30;61.00
21267;DHT22;10791;53.108;18.326;2023-07-02T15:57:48;25.60;58.70
21267;DHT22;10791;53.108;18.326;2023-07-02T16:02:51;25.10;59.20
21267;DHT22;10791;53.108;18.326;2023-07-02T16:07:55;25.30;60.40
21267;DHT22;10791;53.108;18.326;2023-07-02T16:12:59;25.60;58.80
21267;DHT22;10791;53.108;18.326;2023-07-02T16:18:02;25.50;59.20
21267;DHT22;10791;53.108;18.326;2023-07-02T16:23:07;24.40;60.60
21267;DHT22;10791;53.108;18.326;2023-07-02T16:28:14;23.40;62.50
21267;DHT22;10791;53.108;18.326;2023-07-02T16:33:18;22.80;64.70
21267;DHT22;10791;53.108;18.326;2023-07-02T16:38:21;22.60;66.10
21267;DHT22;10791;53.108;18.326;2023-07-02T16:43:25;22.50;67.90
21267;DHT22;10791;53.108;18.326;2023-07-02T16:48:35;22.50;69.90
21267;DHT22;10791;53.108;18.326;2023-07-02T16:53:41;22.50;69.70
21267;DHT22;10791;53.108;18.326;2023-07-02T16:58:45;22.40;70.70
21267;DHT22;10791;53.108;18.326;2023-07-02T17:03:51;22.30;71.40
21267;DHT22;10791;53.108;18.326;2023-07-02T17:14:27;23.30;69.30
21267;DHT22;10791;53.108;18.326;2023-07-02T17:19:45;24.00;67.30
21267;DHT22;10791;53.108;18.326;2023-07-02T17:24:52;24.40;65.90
21267;DHT22;10791;53.108;18.326;2023-07-02T17:30:02;24.60;64.60
21267;DHT22;10791;53.108;18.326;2023-07-02T17:35:07;24.60;63.50
21267;DHT22;10791;53.108;18.326;2023-07-02T17:40:19;24.50;64.80
21267;DHT22;10791;53.108;18.326;2023-07-02T17:45:25;24.00;65.20
21267;DHT22;10791;53.108;18.326;2023-07-02T17:50:32;23.50;64.30
21267;DHT22;10791;53.108;18.326;2023-07-02T17:55:37;23.20;65.00
21267;DHT22;10791;53.108;18.326;2023-07-02T18:00:43;23.00;65.90
21267;DHT22;10791;53.108;18.326;2023-07-02T18:05:50;22.70;66.70
21267;DHT22;10791;53.108;18.326;2023-07-02T18:10:58;22.70;67.90
21267;DHT22;10791;53.108;18.326;2023-07-02T18:16:04;22.20;67.60
21267;DHT22;10791;53.108;18.326;2023-07-02T18:21:08;21.80;68.80
21267;DHT22;10791;53.108;18.326;2023-07-02T18:26:18;21.50;69.60
21267;DHT22;10791;53.108;18.326;2023-07-02T18:31:24;21.30;70.00
21267;DHT22;10791;53.108;18.326;2023-07-02T18:36:35;21.10;70.00
21267;DHT22;10791;53.108;18.326;2023-07-02T18:41:42;21.00;69.40
21267;DHT22;10791;53.108;18.326;2023-07-02T18:46:48;21.00;68.50
21267;DHT22;10791;53.108;18.326;2023-07-02T18:51:57;20.90;68.50
21267;DHT22;10791;53.108;18.326;2023-07-02T18:57:08;20.70;71.80
21267;DHT22;10791;53.108;18.326;2023-07-02T19:02:17;20.30;82.40
21267;DHT22;10791;53.108;18.326;2023-07-02T19:07:25;20.10;84.60
21267;DHT22;10791;53.108;18.326;2023-07-02T19:12:37;19.70;86.60
21267;DHT22;10791;53.108;18.326;2023-07-02T19:17:42;19.40;88.90
21267;DHT22;10791;53.108;18.326;2023-07-02T19:22:50;19.10;90.30
21267;DHT22;10791;53.108;18.326;2023-07-02T19:27:58;18.90;91.30
21267;DHT22;10791;53.108;18.326;2023-07-02T19:33:05;18.90;92.20
21267;DHT22;10791;53.108;18.326;2023-07-02T19:38:13;18.80;92.80
21267;DHT22;10791;53.108;18.326;2023-07-02T19:43:19;18.70;93.20
21267;DHT22;10791;53.108;18.326;2023-07-02T19:48:28;18.50;94.30
21267;DHT22;10791;53.108;18.326;2023-07-02T19:53:38;18.40;95.20
21267;DHT22;10791;53.108;18.326;2023-07-02T19:58:44;18.10;96.30
21267;DHT22;10791;53.108;18.326;2023-07-02T20:03:52;17.90;97.80
21267;DHT22;10791;53.108;18.326;2023-07-02T20:09:00;17.60;99.20
21267;DHT22;10791;53.108;18.326;2023-07-02T20:14:07;17.50;99.90
21267;DHT22;10791;53.108;18.326;2023-07-02T20:19:15;17.10;99.90
21267;DHT22;10791;53.108;18.326;2023-07-02T20:24:27;16.90;99.90
21267;DHT22;10791;53.108;18.326;2023-07-02T20:29:30;16.90;99.90
21267;DHT22;10791;53.108;18.326;2023-07-02T20:34:34;16.70;99.90
21267;DHT22;10791;53.108;18.326;2023-07-02T20:39:39;16.50;99.90
21267;DHT22;10791;53.108;18.326;2023-07-02T20:44:46;16.40;99.90
21267;DHT22;10791;53.108;18.326;2023-07-02T20:49:54;16.30;99.90
21267;DHT22;10791;53.108;18.326;2023-07-02T20:54:58;16.10;99.90
21267;DHT22;10791;53.108;18.326;2023-07-02T21:00:02;16.00;99.90
21267;DHT22;10791;53.108;18.326;2023-07-02T21:05:11;15.90;99.90
21267;DHT22;10791;53.108;18.326;2023-07-02T21:10:16;15.80;99.90
21267;DHT22;10791;53.108;18.326;2023-07-02T21:15:23;15.60;99.90
21267;DHT22;10791;53.108;18.326;2023-07-02T21:20:28;15.50;99.90
21267;DHT22;10791;53.108;18.326;2023-07-02T21:25:33;15.20;99.90
21267;DHT22;10791;53.108;18.326;2023-07-02T21:30:37;15.00;99.90
21267;DHT22;10791;53.108;18.326;2023-07-02T21:35:41;14.80;99.90
21267;DHT22;10791;53.108;18.326;2023-07-02T21:40:44;14.70;99.90
21267;DHT22;10791;53.108;18.326;2023-07-02T21:45:55;14.60;99.90
21267;DHT22;10791;53.108;18.326;2023-07-02T21:51:00;14.50;99.90
21267;DHT22;10791;53.108;18.326;2023-07-02T21:56:04;14.40;99.90
21267;DHT22;10791;53.108;18.326;2023-07-02T22:01:10;14.30;99.90
21267;DHT22;10791;53.108;18.326;2023-07-02T22:06:14;14.20;99.90
21267;DHT22;10791;53.108;18.326;2023-07-02T22:11:18;14.10;99.90
21267;DHT22;10791;53.108;18.326;2023-07-02T22:16:25;13.80;99.90
21267;DHT22;10791;53.108;18.326;2023-07-02T22:21:29;13.70;99.90
21267;DHT22;10791;53.108;18.326;2023-07-02T22:26:32;13.50;99.90
21267;DHT22;10791;53.108;18.326;2023-07-02T22:31:36;13.40;99.90
21267;DHT22;10791;53.108;18.326;2023-07-02T22:36:39;13.40;99.90
21267;DHT22;10791;53.108;18.326;2023-07-02T22:41:45;13.40;99.90
21267;DHT22;10791;53.108;18.326;2023-07-02T22:46:48;13.30;99.90
21267;DHT22;10791;53.108;18.326;2023-07-02T22:51:52;13.20;99.90
21267;DHT22;10791;53.108;18.326;2023-07-02T22:56:58;13.20;99.90
21267;DHT22;10791;53.108;18.326;2023-07-02T23:02:02;13.10;99.90
21267;DHT22;10791;53.108;18.326;2023-07-02T23:07:06;12.90;99.90
21267;DHT22;10791;53.108;18.326;2023-07-02T23:12:10;12.80;99.90
21267;DHT22;10791;53.108;18.326;2023-07-02T23:17:13;12.80;99.90
21267;DHT22;10791;53.108;18.326;2023-07-02T23:22:17;12.70;99.90
21267;DHT22;10791;53.108;18.326;2023-07-02T23:27:21;12.70;99.90
21267;DHT22;10791;53.108;18.326;2023-07-02T23:32:25;12.60;99.90
21267;DHT22;10791;53.108;18.326;2023-07-02T23:37:29;12.50;99.90
21267;DHT22;10791;53.108;18.326;2023-07-02T23:42:33;12.50;99.90
21267;DHT22;10791;53.108;18.326;2023-07-02T23:47:37;12.40;99.90
21267;DHT22;10791;53.108;18.326;2023-07-02T23:52:41;12.30;99.90
21267;DHT22;10791;53.108;18.326;2023-07-02T23:57:44;12.20;99.90
